sensor_id;sensor_type;location;lat;lon;timestamp;pressure;altitude;pressure_sealevel;temperature;humidity
12349;BME280;5974;42.710;27.258;2023-05-08T00:02:05;100505.03;;;8.16;100.00
12349;BME280;5974;42.710;27.258;2023-05-08T00:04:32;100492.41;;;8.00;100.00
12349;BME280;5974;42.710;27.258;2023-05-08T00:06:59;100501.78;;;8.08;100.00
12349;BME280;5974;42.710;27.258;2023-05-08T00:09:27;100485.66;;;7.93;100.00
12349;BME280;5974;42.710;27.258;2023-05-08T00:11:54;100498.63;;;7.94;100.00
12349;BME280;5974;42.710;27.258;2023-05-08T00:14:21;100484.03;;;7.89;100.00
12349;BME280;5974;42.710;27.258;2023-05-08T00:16:48;100506.00;;;8.12;100.00
12349;BME280;5974;42.710;27.258;2023-05-08T00:19:15;100505.97;;;8.14;100.00
12349;BME280;5974;42.710;27.258;2023-05-08T00:21:42;100508.59;;;8.14;100.00
12349;BME280;5974;42.710;27.258;2023-05-08T00:24:09;100503.75;;;7.97;100.00
12349;BME280;5974;42.710;27.258;2023-05-08T00:26:37;100506.13;;;7.71;100.00
12349;BME280;5974;42.710;27.258;2023-05-08T00:29:06;100510.56;;;7.28;100.00
12349;BME280;5974;42.710;27.258;2023-05-08T00:31:33;100492.22;;;7.32;100.00
12349;BME280;5974;42.710;27.258;2023-05-08T00:34:00;100511.41;;;7.68;100.00
12349;BME280;5974;42.710;27.258;2023-05-08T00:36:27;100504.09;;;7.84;100.00
12349;BME280;5974;42.710;27.258;2023-05-08T00:38:54;100513.50;;;7.89;100.00
12349;BME280;5974;42.710;27.258;2023-05-08T00:41:20;100505.59;;;7.94;100.00
12349;BME280;5974;42.710;27.258;2023-05-08T00:43:49;100509.19;;;7.88;100.00
12349;BME280;5974;42.710;27.258;2023-05-08T00:46:16;100507.72;;;7.78;100.00
12349;BME280;5974;42.710;27.258;2023-05-08T00:48:43;100502.19;;;7.53;100.00
12349;BME280;5974;42.710;27.258;2023-05-08T00:51:12;100506.63;;;7.48;100.00
12349;BME280;5974;42.710;27.258;2023-05-08T00:53:41;100506.75;;;7.44;100.00
12349;BME280;5974;42.710;27.258;2023-05-08T00:56:11;100512.97;;;6.94;100.00
12349;BME280;5974;42.710;27.258;2023-05-08T00:58:40;100515.84;;;7.23;100.00
12349;BME280;5974;42.710;27.258;2023-05-08T01:01:09;100518.25;;;7.32;100.00
12349;BME280;5974;42.710;27.258;2023-05-08T01:03:37;100520.19;;;7.23;100.00
12349;BME280;5974;42.710;27.258;2023-05-08T01:06:04;100520.81;;;7.34;100.00
12349;BME280;5974;42.710;27.258;2023-05-08T01:08:32;100521.50;;;7.43;100.00
12349;BME280;5974;42.710;27.258;2023-05-08T01:11:11;100517.16;;;7.42;100.00
12349;BME280;5974;42.710;27.258;2023-05-08T01:13:53;100520.28;;;7.58;100.00
12349;BME280;5974;42.710;27.258;2023-05-08T01:16:37;100518.72;;;7.51;100.00
12349;BME280;5974;42.710;27.258;2023-05-08T01:19:41;100516.94;;;7.53;100.00
12349;BME280;5974;42.710;27.258;2023-05-08T01:22:24;100512.22;;;7.30;100.00
12349;BME280;5974;42.710;27.258;2023-05-08T01:28:06;100522.94;;;7.17;100.00
12349;BME280;5974;42.710;27.258;2023-05-08T01:30:54;100519.41;;;7.19;100.00
12349;BME280;5974;42.710;27.258;2023-05-08T01:33:31;100522.31;;;7.02;100.00
12349;BME280;5974;42.710;27.258;2023-05-08T01:36:07;100518.28;;;6.88;100.00
12349;BME280;5974;42.710;27.258;2023-05-08T01:38:41;100523.25;;;7.00;100.00
12349;BME280;5974;42.710;27.258;2023-05-08T01:41:15;100512.94;;;6.95;100.00
12349;BME280;5974;42.710;27.258;2023-05-08T01:43:49;100511.13;;;7.00;100.00
12349;BME280;5974;42.710;27.258;2023-05-08T01:46:21;100509.38;;;6.99;100.00
12349;BME280;5974;42.710;27.258;2023-05-08T01:48:58;100509.50;;;6.93;100.00
12349;BME280;5974;42.710;27.258;2023-05-08T01:51:27;100517.88;;;7.07;100.00
12349;BME280;5974;42.710;27.258;2023-05-08T01:54:04;100518.72;;;7.09;100.00
12349;BME280;5974;42.710;27.258;2023-05-08T01:56:33;100521.56;;;6.97;100.00
12349;BME280;5974;42.710;27.258;2023-05-08T01:59:03;100521.19;;;6.73;100.00
12349;BME280;5974;42.710;27.258;2023-05-08T02:01:33;100520.59;;;6.57;100.00
12349;BME280;5974;42.710;27.258;2023-05-08T02:04:02;100513.56;;;6.64;100.00
12349;BME280;5974;42.710;27.258;2023-05-08T02:06:31;100523.09;;;6.63;100.00
12349;BME280;5974;42.710;27.258;2023-05-08T02:08:59;100523.19;;;6.57;100.00
12349;BME280;5974;42.710;27.258;2023-05-08T02:11:28;100514.69;;;6.47;100.00
12349;BME280;5974;42.710;27.258;2023-05-08T02:13:58;100529.25;;;6.56;100.00
12349;BME280;5974;42.710;27.258;2023-05-08T02:16:27;100516.22;;;6.59;100.00
12349;BME280;5974;42.710;27.258;2023-05-08T02:18:58;100518.88;;;6.56;100.00
12349;BME280;5974;42.710;27.258;2023-05-08T02:21:27;100524.00;;;6.59;100.00
12349;BME280;5974;42.710;27.258;2023-05-08T02:23:55;100528.19;;;6.68;100.00
12349;BME280;5974;42.710;27.258;2023-05-08T02:26:24;100528.19;;;6.68;100.00
12349;BME280;5974;42.710;27.258;2023-05-08T02:28:53;100525.56;;;6.69;100.00
12349;BME280;5974;42.710;27.258;2023-05-08T02:31:21;100529.72;;;6.79;100.00
12349;BME280;5974;42.710;27.258;2023-05-08T02:33:50;100523.69;;;6.77;100.00
12349;BME280;5974;42.710;27.258;2023-05-08T02:36:19;100521.06;;;6.79;100.00
12349;BME280;5974;42.710;27.258;2023-05-08T02:38:51;100526.34;;;6.74;100.00
12349;BME280;5974;42.710;27.258;2023-05-08T02:41:20;100523.53;;;6.85;100.00
12349;BME280;5974;42.710;27.258;2023-05-08T02:43:49;100515.75;;;6.85;100.00
12349;BME280;5974;42.710;27.258;2023-05-08T02:46:20;100521.66;;;6.93;100.00
12349;BME280;5974;42.710;27.258;2023-05-08T02:49:00;100505.34;;;6.85;100.00
12349;BME280;5974;42.710;27.258;2023-05-08T02:51:37;100523.13;;;7.04;100.00
12349;BME280;5974;42.710;27.258;2023-05-08T02:54:13;100517.53;;;6.81;100.00
12349;BME280;5974;42.710;27.258;2023-05-08T02:56:55;100518.81;;;6.59;100.00
12349;BME280;5974;42.710;27.258;2023-05-08T02:59:29;100521.22;;;6.70;100.00
12349;BME280;5974;42.710;27.258;2023-05-08T03:02:01;100510.78;;;6.71;100.00
12349;BME280;5974;42.710;27.258;2023-05-08T03:04:35;100510.50;;;6.88;100.00
12349;BME280;5974;42.710;27.258;2023-05-08T03:07:03;100516.44;;;6.94;100.00
12349;BME280;5974;42.710;27.258;2023-05-08T03:09:37;100521.00;;;6.80;100.00
12349;BME280;5974;42.710;27.258;2023-05-08T03:12:10;100513.03;;;6.89;100.00
12349;BME280;5974;42.710;27.258;2023-05-08T03:14:43;100518.97;;;6.96;100.00
12349;BME280;5974;42.710;27.258;2023-05-08T03:17:14;100525.41;;;6.78;100.00
12349;BME280;5974;42.710;27.258;2023-05-08T03:19:46;100535.09;;;6.70;100.00
12349;BME280;5974;42.710;27.258;2023-05-08T03:22:18;100548.59;;;6.89;100.00
12349;BME280;5974;42.710;27.258;2023-05-08T03:24:49;100521.97;;;7.21;100.00
12349;BME280;5974;42.710;27.258;2023-05-08T03:27:18;100520.03;;;7.30;100.00
12349;BME280;5974;42.710;27.258;2023-05-08T03:29:46;100519.09;;;7.33;100.00
12349;BME280;5974;42.710;27.258;2023-05-08T03:32:16;100511.75;;;7.51;100.00
12349;BME280;5974;42.710;27.258;2023-05-08T03:34:44;100518.63;;;7.55;100.00
12349;BME280;5974;42.710;27.258;2023-05-08T03:37:11;100510.41;;;7.72;100.00
12349;BME280;5974;42.710;27.258;2023-05-08T03:39:39;100515.53;;;7.78;100.00
12349;BME280;5974;42.710;27.258;2023-05-08T03:42:07;100509.25;;;7.87;100.00
12349;BME280;5974;42.710;27.258;2023-05-08T03:44:36;100504.06;;;7.85;100.00
12349;BME280;5974;42.710;27.258;2023-05-08T03:47:04;100500.91;;;8.08;100.00
12349;BME280;5974;42.710;27.258;2023-05-08T03:49:32;100509.16;;;8.25;100.00
12349;BME280;5974;42.710;27.258;2023-05-08T03:52:01;100505.41;;;8.38;100.00
12349;BME280;5974;42.710;27.258;2023-05-08T03:54:28;100494.75;;;8.47;100.00
12349;BME280;5974;42.710;27.258;2023-05-08T03:56:55;100489.84;;;8.67;100.00
12349;BME280;5974;42.710;27.258;2023-05-08T03:59:31;100492.69;;;8.91;100.00
12349;BME280;5974;42.710;27.258;2023-05-08T04:02:11;100491.06;;;9.17;100.00
12349;BME280;5974;42.710;27.258;2023-05-08T04:04:43;100477.81;;;9.25;100.00
12349;BME280;5974;42.710;27.258;2023-05-08T04:07:14;100486.81;;;9.72;100.00
12349;BME280;5974;42.710;27.258;2023-05-08T04:09:54;100493.91;;;10.22;100.00
12349;BME280;5974;42.710;27.258;2023-05-08T04:12:26;100482.78;;;11.38;100.00
12349;BME280;5974;42.710;27.258;2023-05-08T04:15:03;100465.03;;;13.49;100.00
12349;BME280;5974;42.710;27.258;2023-05-08T04:17:38;100455.72;;;16.09;100.00
12349;BME280;5974;42.710;27.258;2023-05-08T04:20:08;100443.66;;;17.76;100.00
12349;BME280;5974;42.710;27.258;2023-05-08T04:22:38;100425.09;;;20.61;81.46
12349;BME280;5974;42.710;27.258;2023-05-08T04:25:07;100450.03;;;23.66;64.28
12349;BME280;5974;42.710;27.258;2023-05-08T04:27:36;100448.72;;;25.32;55.86
12349;BME280;5974;42.710;27.258;2023-05-08T04:30:06;100452.69;;;26.88;51.18
12349;BME280;5974;42.710;27.258;2023-05-08T04:32:34;100456.03;;;28.24;45.57
12349;BME280;5974;42.710;27.258;2023-05-08T04:35:02;100444.88;;;30.31;41.00
12349;BME280;5974;42.710;27.258;2023-05-08T04:37:30;100455.72;;;31.50;38.36
12349;BME280;5974;42.710;27.258;2023-05-08T04:39:57;100452.94;;;27.87;40.45
12349;BME280;5974;42.710;27.258;2023-05-08T04:42:24;100450.50;;;25.14;46.11
12349;BME280;5974;42.710;27.258;2023-05-08T04:44:51;100449.81;;;22.79;49.27
12349;BME280;5974;42.710;27.258;2023-05-08T04:47:20;100456.09;;;24.93;48.23
12349;BME280;5974;42.710;27.258;2023-05-08T04:49:48;100454.25;;;27.07;44.10
12349;BME280;5974;42.710;27.258;2023-05-08T04:52:15;100447.34;;;29.18;42.11
12349;BME280;5974;42.710;27.258;2023-05-08T04:54:42;100448.88;;;29.28;39.62
12349;BME280;5974;42.710;27.258;2023-05-08T04:57:09;100450.50;;;28.74;41.10
12349;BME280;5974;42.710;27.258;2023-05-08T04:59:36;100449.97;;;28.30;40.70
12349;BME280;5974;42.710;27.258;2023-05-08T05:02:04;100451.41;;;26.57;42.75
12349;BME280;5974;42.710;27.258;2023-05-08T05:04:34;100448.53;;;24.60;45.75
12349;BME280;5974;42.710;27.258;2023-05-08T05:07:01;100441.66;;;23.10;48.57
12349;BME280;5974;42.710;27.258;2023-05-08T05:09:28;100444.84;;;21.02;52.32
12349;BME280;5974;42.710;27.258;2023-05-08T05:11:55;100456.53;;;20.89;55.13
12349;BME280;5974;42.710;27.258;2023-05-08T05:14:22;100466.59;;;20.85;55.51
12349;BME280;5974;42.710;27.258;2023-05-08T05:16:49;100457.75;;;22.58;54.95
12349;BME280;5974;42.710;27.258;2023-05-08T05:19:16;100455.84;;;25.51;47.29
12349;BME280;5974;42.710;27.258;2023-05-08T05:21:44;100461.81;;;24.42;48.28
12349;BME280;5974;42.710;27.258;2023-05-08T05:24:11;100460.09;;;24.60;48.47
12349;BME280;5974;42.710;27.258;2023-05-08T05:26:38;100452.91;;;27.71;44.55
12349;BME280;5974;42.710;27.258;2023-05-08T05:29:05;100452.31;;;28.90;41.55
12349;BME280;5974;42.710;27.258;2023-05-08T05:31:32;100452.16;;;28.91;41.32
12349;BME280;5974;42.710;27.258;2023-05-08T05:33:59;100458.06;;;28.55;41.57
12349;BME280;5974;42.710;27.258;2023-05-08T05:36:26;100458.84;;;30.12;40.82
12349;BME280;5974;42.710;27.258;2023-05-08T05:38:55;100460.59;;;28.48;41.42
12349;BME280;5974;42.710;27.258;2023-05-08T05:41:22;100454.00;;;28.59;42.49
12349;BME280;5974;42.710;27.258;2023-05-08T05:43:49;100456.34;;;28.21;41.99
12349;BME280;5974;42.710;27.258;2023-05-08T05:46:15;100455.09;;;29.21;41.11
12349;BME280;5974;42.710;27.258;2023-05-08T05:48:43;100460.22;;;28.59;42.01
12349;BME280;5974;42.710;27.258;2023-05-08T05:51:09;100457.88;;;29.82;40.23
12349;BME280;5974;42.710;27.258;2023-05-08T05:53:36;100443.63;;;29.66;40.12
12349;BME280;5974;42.710;27.258;2023-05-08T05:56:06;100453.19;;;28.82;41.72
12349;BME280;5974;42.710;27.258;2023-05-08T05:58:33;100460.84;;;29.01;41.10
12349;BME280;5974;42.710;27.258;2023-05-08T06:01:00;100451.19;;;32.07;37.11
12349;BME280;5974;42.710;27.258;2023-05-08T06:03:27;100456.25;;;31.01;37.68
12349;BME280;5974;42.710;27.258;2023-05-08T06:05:54;100449.66;;;31.84;37.08
12349;BME280;5974;42.710;27.258;2023-05-08T06:08:20;100462.16;;;32.63;36.40
12349;BME280;5974;42.710;27.258;2023-05-08T06:10:47;100459.22;;;31.50;36.58
12349;BME280;5974;42.710;27.258;2023-05-08T06:13:15;100457.63;;;29.22;37.74
12349;BME280;5974;42.710;27.258;2023-05-08T06:15:42;100459.63;;;29.67;39.75
12349;BME280;5974;42.710;27.258;2023-05-08T06:18:09;100460.41;;;28.41;40.21
12349;BME280;5974;42.710;27.258;2023-05-08T06:20:36;100450.22;;;27.79;41.11
12349;BME280;5974;42.710;27.258;2023-05-08T06:23:05;100445.94;;;27.52;41.53
12349;BME280;5974;42.710;27.258;2023-05-08T06:25:31;100440.13;;;25.01;43.58
12349;BME280;5974;42.710;27.258;2023-05-08T06:27:58;100433.66;;;24.38;45.24
12349;BME280;5974;42.710;27.258;2023-05-08T06:30:27;100436.47;;;24.17;47.01
12349;BME280;5974;42.710;27.258;2023-05-08T06:32:53;100447.00;;;27.67;41.94
12349;BME280;5974;42.710;27.258;2023-05-08T06:35:21;100441.34;;;31.49;36.32
12349;BME280;5974;42.710;27.258;2023-05-08T06:37:48;100453.06;;;30.98;37.43
12349;BME280;5974;42.710;27.258;2023-05-08T06:40:14;100448.50;;;30.01;37.36
12349;BME280;5974;42.710;27.258;2023-05-08T06:42:41;100450.56;;;30.44;36.97
12349;BME280;5974;42.710;27.258;2023-05-08T06:45:08;100443.97;;;30.99;36.39
12349;BME280;5974;42.710;27.258;2023-05-08T06:47:37;100442.69;;;30.12;35.89
12349;BME280;5974;42.710;27.258;2023-05-08T06:50:05;100439.41;;;30.62;35.16
12349;BME280;5974;42.710;27.258;2023-05-08T06:52:32;100441.44;;;34.52;31.34
12349;BME280;5974;42.710;27.258;2023-05-08T06:54:59;100441.63;;;32.54;34.35
12349;BME280;5974;42.710;27.258;2023-05-08T06:57:26;100438.22;;;33.83;32.30
12349;BME280;5974;42.710;27.258;2023-05-08T06:59:54;100446.63;;;36.70;28.63
12349;BME280;5974;42.710;27.258;2023-05-08T07:02:21;100451.41;;;32.55;30.90
12349;BME280;5974;42.710;27.258;2023-05-08T07:04:49;100450.66;;;28.08;34.79
12349;BME280;5974;42.710;27.258;2023-05-08T07:07:16;100450.06;;;27.05;37.20
12349;BME280;5974;42.710;27.258;2023-05-08T07:09:43;100448.28;;;24.15;39.47
12349;BME280;5974;42.710;27.258;2023-05-08T07:12:10;100450.56;;;23.20;43.03
12349;BME280;5974;42.710;27.258;2023-05-08T07:14:37;100444.44;;;25.21;41.91
12349;BME280;5974;42.710;27.258;2023-05-08T07:17:04;100449.25;;;26.17;41.26
12349;BME280;5974;42.710;27.258;2023-05-08T07:19:32;100448.19;;;27.65;38.20
12349;BME280;5974;42.710;27.258;2023-05-08T07:22:01;100447.56;;;27.87;37.39
12349;BME280;5974;42.710;27.258;2023-05-08T07:24:28;100442.97;;;26.26;39.77
12349;BME280;5974;42.710;27.258;2023-05-08T07:26:54;100444.69;;;27.38;39.05
12349;BME280;5974;42.710;27.258;2023-05-08T07:29:21;100443.75;;;29.72;37.18
12349;BME280;5974;42.710;27.258;2023-05-08T07:31:48;100437.53;;;28.53;37.23
12349;BME280;5974;42.710;27.258;2023-05-08T07:34:16;100444.94;;;26.85;37.73
12349;BME280;5974;42.710;27.258;2023-05-08T07:36:43;100432.75;;;26.99;39.06
12349;BME280;5974;42.710;27.258;2023-05-08T07:39:12;100437.63;;;27.87;38.25
12349;BME280;5974;42.710;27.258;2023-05-08T07:41:38;100443.66;;;27.81;38.67
12349;BME280;5974;42.710;27.258;2023-05-08T07:44:06;100438.69;;;27.44;38.19
12349;BME280;5974;42.710;27.258;2023-05-08T07:46:33;100435.81;;;26.35;40.78
12349;BME280;5974;42.710;27.258;2023-05-08T07:49:00;100440.91;;;26.64;40.91
12349;BME280;5974;42.710;27.258;2023-05-08T07:51:27;100431.59;;;24.78;44.16
12349;BME280;5974;42.710;27.258;2023-05-08T07:53:53;100410.13;;;23.94;46.43
12349;BME280;5974;42.710;27.258;2023-05-08T07:56:22;100434.47;;;23.32;46.50
12349;BME280;5974;42.710;27.258;2023-05-08T07:58:48;100433.38;;;23.13;47.90
12349;BME280;5974;42.710;27.258;2023-05-08T08:01:15;100421.50;;;23.67;50.72
12349;BME280;5974;42.710;27.258;2023-05-08T08:03:43;100418.25;;;22.84;49.52
12349;BME280;5974;42.710;27.258;2023-05-08T08:06:10;100374.66;;;22.23;52.36
12349;BME280;5974;42.710;27.258;2023-05-08T08:08:37;100411.69;;;22.88;52.94
12349;BME280;5974;42.710;27.258;2023-05-08T08:11:04;100421.56;;;22.35;49.99
12349;BME280;5974;42.710;27.258;2023-05-08T08:13:33;100423.72;;;23.12;49.15
12349;BME280;5974;42.710;27.258;2023-05-08T08:16:00;100415.91;;;23.30;48.03
12349;BME280;5974;42.710;27.258;2023-05-08T08:18:28;100412.44;;;22.58;48.58
12349;BME280;5974;42.710;27.258;2023-05-08T08:20:55;100416.25;;;23.06;49.20
12349;BME280;5974;42.710;27.258;2023-05-08T08:23:22;100383.59;;;21.58;47.62
12349;BME280;5974;42.710;27.258;2023-05-08T08:25:49;100415.31;;;22.25;49.39
12349;BME280;5974;42.710;27.258;2023-05-08T08:28:18;100416.63;;;22.51;47.47
12349;BME280;5974;42.710;27.258;2023-05-08T08:30:46;100412.69;;;22.45;47.48
12349;BME280;5974;42.710;27.258;2023-05-08T08:33:13;100409.94;;;22.36;46.43
12349;BME280;5974;42.710;27.258;2023-05-08T08:35:40;100412.06;;;22.83;46.57
12349;BME280;5974;42.710;27.258;2023-05-08T08:38:07;100413.22;;;22.90;48.34
12349;BME280;5974;42.710;27.258;2023-05-08T08:40:38;100366.41;;;22.67;46.60
12349;BME280;5974;42.710;27.258;2023-05-08T08:43:05;100404.06;;;22.83;45.04
12349;BME280;5974;42.710;27.258;2023-05-08T08:45:32;100401.56;;;22.61;48.42
12349;BME280;5974;42.710;27.258;2023-05-08T08:48:01;100405.69;;;23.05;45.96
12349;BME280;5974;42.710;27.258;2023-05-08T08:50:30;100407.81;;;23.11;44.66
12349;BME280;5974;42.710;27.258;2023-05-08T08:53:03;100400.31;;;23.26;47.42
12349;BME280;5974;42.710;27.258;2023-05-08T08:55:36;100401.50;;;22.72;46.68
12349;BME280;5974;42.710;27.258;2023-05-08T08:58:12;100394.28;;;22.42;45.96
12349;BME280;5974;42.710;27.258;2023-05-08T09:00:40;100395.25;;;21.46;46.86
12349;BME280;5974;42.710;27.258;2023-05-08T09:03:09;100395.72;;;21.51;46.22
12349;BME280;5974;42.710;27.258;2023-05-08T09:05:36;100388.16;;;22.31;46.21
12349;BME280;5974;42.710;27.258;2023-05-08T09:08:04;100388.16;;;22.31;47.83
12349;BME280;5974;42.710;27.258;2023-05-08T09:10:34;100375.44;;;22.13;46.52
12349;BME280;5974;42.710;27.258;2023-05-08T09:13:02;100388.34;;;21.86;45.90
12349;BME280;5974;42.710;27.258;2023-05-08T09:15:30;100379.28;;;21.89;47.33
12349;BME280;5974;42.710;27.258;2023-05-08T09:17:57;100386.06;;;22.34;46.08
12349;BME280;5974;42.710;27.258;2023-05-08T09:20:25;100373.88;;;22.32;48.17
12349;BME280;5974;42.710;27.258;2023-05-08T09:22:53;100375.28;;;22.56;44.97
12349;BME280;5974;42.710;27.258;2023-05-08T09:25:20;100383.03;;;22.39;46.54
12349;BME280;5974;42.710;27.258;2023-05-08T09:27:47;100375.09;;;22.07;46.86
12349;BME280;5974;42.710;27.258;2023-05-08T09:30:14;100376.13;;;22.15;47.58
12349;BME280;5974;42.710;27.258;2023-05-08T09:32:42;100370.47;;;21.77;48.19
12349;BME280;5974;42.710;27.258;2023-05-08T09:35:10;100368.13;;;21.95;45.87
12349;BME280;5974;42.710;27.258;2023-05-08T09:37:39;100370.22;;;21.48;45.59
12349;BME280;5974;42.710;27.258;2023-05-08T09:40:16;100368.16;;;21.52;47.82
12349;BME280;5974;42.710;27.258;2023-05-08T09:42:43;100357.91;;;21.36;46.61
12349;BME280;5974;42.710;27.258;2023-05-08T09:45:10;100351.28;;;21.62;46.57
12349;BME280;5974;42.710;27.258;2023-05-08T09:47:37;100362.66;;;21.65;47.06
12349;BME280;5974;42.710;27.258;2023-05-08T09:50:13;100355.84;;;21.40;46.68
12349;BME280;5974;42.710;27.258;2023-05-08T09:52:46;100365.78;;;21.04;47.58
12349;BME280;5974;42.710;27.258;2023-05-08T09:55:14;100357.09;;;21.14;47.28
12349;BME280;5974;42.710;27.258;2023-05-08T09:57:53;100361.34;;;20.94;47.39
12349;BME280;5974;42.710;27.258;2023-05-08T10:00:22;100347.88;;;21.40;49.07
12349;BME280;5974;42.710;27.258;2023-05-08T10:02:57;100343.66;;;21.26;48.78
12349;BME280;5974;42.710;27.258;2023-05-08T10:05:25;100340.88;;;21.05;49.61
12349;BME280;5974;42.710;27.258;2023-05-08T10:07:55;100349.13;;;21.25;49.24
12349;BME280;5974;42.710;27.258;2023-05-08T10:10:23;100353.38;;;21.48;51.55
12349;BME280;5974;42.710;27.258;2023-05-08T10:12:52;100346.59;;;21.55;49.52
12349;BME280;5974;42.710;27.258;2023-05-08T10:15:22;100344.75;;;21.35;49.46
12349;BME280;5974;42.710;27.258;2023-05-08T10:17:53;100340.72;;;21.72;50.74
12349;BME280;5974;42.710;27.258;2023-05-08T10:20:21;100334.63;;;21.92;51.92
12349;BME280;5974;42.710;27.258;2023-05-08T10:22:50;100319.84;;;21.56;48.07
12349;BME280;5974;42.710;27.258;2023-05-08T10:25:21;100335.91;;;21.66;51.69
12349;BME280;5974;42.710;27.258;2023-05-08T10:27:54;100330.75;;;21.85;49.28
12349;BME280;5974;42.710;27.258;2023-05-08T10:30:23;100345.53;;;21.78;48.95
12349;BME280;5974;42.710;27.258;2023-05-08T10:32:51;100337.88;;;22.17;48.60
12349;BME280;5974;42.710;27.258;2023-05-08T10:35:20;100340.19;;;21.57;46.98
12349;BME280;5974;42.710;27.258;2023-05-08T10:37:48;100336.81;;;21.44;48.86
12349;BME280;5974;42.710;27.258;2023-05-08T10:40:15;100330.75;;;21.53;50.75
12349;BME280;5974;42.710;27.258;2023-05-08T10:42:44;100338.47;;;21.99;48.28
12349;BME280;5974;42.710;27.258;2023-05-08T10:45:12;100304.66;;;21.47;49.44
12349;BME280;5974;42.710;27.258;2023-05-08T10:47:52;100335.38;;;21.83;49.32
12349;BME280;5974;42.710;27.258;2023-05-08T10:50:47;100329.75;;;21.34;48.59
12349;BME280;5974;42.710;27.258;2023-05-08T10:53:23;100319.75;;;21.90;48.24
12349;BME280;5974;42.710;27.258;2023-05-08T10:55:51;100313.28;;;21.72;48.20
12349;BME280;5974;42.710;27.258;2023-05-08T10:58:29;100313.06;;;21.95;48.06
12349;BME280;5974;42.710;27.258;2023-05-08T11:01:13;100320.69;;;21.57;48.52
12349;BME280;5974;42.710;27.258;2023-05-08T11:03:45;100327.22;;;21.64;48.12
12349;BME280;5974;42.710;27.258;2023-05-08T11:06:13;100327.13;;;21.86;47.25
12349;BME280;5974;42.710;27.258;2023-05-08T11:08:48;100307.63;;;21.65;47.62
12349;BME280;5974;42.710;27.258;2023-05-08T11:11:23;100322.56;;;21.45;48.78
12349;BME280;5974;42.710;27.258;2023-05-08T11:13:57;100324.38;;;21.45;49.25
12349;BME280;5974;42.710;27.258;2023-05-08T11:17:02;100312.53;;;21.70;50.67
12349;BME280;5974;42.710;27.258;2023-05-08T11:19:29;100312.53;;;22.22;49.95
12349;BME280;5974;42.710;27.258;2023-05-08T11:22:22;100312.13;;;21.53;49.47
12349;BME280;5974;42.710;27.258;2023-05-08T11:24:58;100302.88;;;21.37;49.42
12349;BME280;5974;42.710;27.258;2023-05-08T11:27:36;100285.75;;;21.07;51.80
12349;BME280;5974;42.710;27.258;2023-05-08T11:30:32;100309.69;;;21.82;50.42
12349;BME280;5974;42.710;27.258;2023-05-08T11:33:28;100300.00;;;21.81;48.99
12349;BME280;5974;42.710;27.258;2023-05-08T11:35:56;100300.63;;;22.26;47.84
12349;BME280;5974;42.710;27.258;2023-05-08T11:38:26;100305.91;;;21.64;50.33
12349;BME280;5974;42.710;27.258;2023-05-08T11:40:55;100308.84;;;21.61;49.84
12349;BME280;5974;42.710;27.258;2023-05-08T11:43:49;100300.69;;;21.74;51.36
12349;BME280;5974;42.710;27.258;2023-05-08T11:46:22;100297.47;;;21.59;51.10
12349;BME280;5974;42.710;27.258;2023-05-08T11:48:57;100303.56;;;20.96;51.18
12349;BME280;5974;42.710;27.258;2023-05-08T11:51:29;100304.00;;;21.23;51.24
12349;BME280;5974;42.710;27.258;2023-05-08T11:53:57;100300.94;;;20.85;50.78
12349;BME280;5974;42.710;27.258;2023-05-08T11:56:24;100295.38;;;21.42;50.49
12349;BME280;5974;42.710;27.258;2023-05-08T11:59:01;100304.66;;;20.93;50.00
12349;BME280;5974;42.710;27.258;2023-05-08T12:01:29;100298.13;;;20.64;49.99
12349;BME280;5974;42.710;27.258;2023-05-08T12:04:01;100293.44;;;20.79;51.39
12349;BME280;5974;42.710;27.258;2023-05-08T12:06:28;100286.28;;;20.90;50.47
12349;BME280;5974;42.710;27.258;2023-05-08T12:08:56;100283.41;;;21.36;49.56
12349;BME280;5974;42.710;27.258;2023-05-08T12:11:23;100289.91;;;21.12;49.30
12349;BME280;5974;42.710;27.258;2023-05-08T12:13:51;100272.44;;;20.76;49.82
12349;BME280;5974;42.710;27.258;2023-05-08T12:16:18;100291.56;;;21.01;49.45
12349;BME280;5974;42.710;27.258;2023-05-08T12:18:50;100291.56;;;21.24;49.86
12349;BME280;5974;42.710;27.258;2023-05-08T12:21:17;100292.75;;;21.31;49.53
12349;BME280;5974;42.710;27.258;2023-05-08T12:23:45;100283.16;;;20.74;50.15
12349;BME280;5974;42.710;27.258;2023-05-08T12:26:12;100287.00;;;21.15;50.70
12349;BME280;5974;42.710;27.258;2023-05-08T12:28:41;100283.16;;;20.74;50.24
12349;BME280;5974;42.710;27.258;2023-05-08T12:31:10;100271.00;;;20.61;51.23
12349;BME280;5974;42.710;27.258;2023-05-08T12:33:37;100277.25;;;20.71;51.82
12349;BME280;5974;42.710;27.258;2023-05-08T12:36:06;100276.75;;;21.10;49.94
12349;BME280;5974;42.710;27.258;2023-05-08T12:38:33;100282.88;;;20.99;51.40
12349;BME280;5974;42.710;27.258;2023-05-08T12:41:01;100278.41;;;21.00;50.75
12349;BME280;5974;42.710;27.258;2023-05-08T12:43:32;100290.16;;;20.97;51.93
12349;BME280;5974;42.710;27.258;2023-05-08T12:46:00;100289.59;;;21.26;50.77
12349;BME280;5974;42.710;27.258;2023-05-08T12:48:27;100286.88;;;21.48;49.95
12349;BME280;5974;42.710;27.258;2023-05-08T12:50:54;100284.38;;;21.35;50.32
12349;BME280;5974;42.710;27.258;2023-05-08T12:53:29;100295.75;;;21.37;47.97
12349;BME280;5974;42.710;27.258;2023-05-08T12:56:00;100288.59;;;20.84;49.66
12349;BME280;5974;42.710;27.258;2023-05-08T12:58:28;100271.34;;;20.78;50.39
12349;BME280;5974;42.710;27.258;2023-05-08T13:01:06;100289.91;;;21.00;49.99
12349;BME280;5974;42.710;27.258;2023-05-08T13:03:34;100287.25;;;20.89;50.19
12349;BME280;5974;42.710;27.258;2023-05-08T13:06:02;100291.75;;;20.67;49.36
12349;BME280;5974;42.710;27.258;2023-05-08T13:08:31;100286.81;;;20.62;50.06